Time;durP1;ratioP1;P1;durP2;ratioP2;P2;SDS_P1;SDS_P2;PMS_P1;PMS_P2;Temp;Humidity;BMP_temperature;BMP_pressure;BME280_temperature;BME280_humidity;BME280_pressure;Samples;Min_cycle;Max_cycle;Signal;HPM_P1;HPM_P2
2022/07/16 00:03:37;;;;;;;2.60;2.10;;;19.50;55.70;;;;;;5039741;28;20306;-70
2022/07/16 00:06:03;;;;;;;2.40;2.20;;;19.50;55.90;;;;;;5040342;28;21014;-70
2022/07/16 00:08:28;;;;;;;2.50;2.30;;;19.40;55.80;;;;;;5050036;28;20249;-69
2022/07/16 00:10:54;;;;;;;3.20;2.60;;;19.40;55.90;;;;;;5038523;28;20211;-70
2022/07/16 00:13:20;;;;;;;3.53;2.27;;;19.40;56.00;;;;;;5044759;28;20230;-69
2022/07/16 00:15:45;;;;;;;2.73;2.53;;;19.40;55.90;;;;;;5034879;28;20686;-70
2022/07/16 00:20:55;;;;;;;2.80;2.37;;;19.30;56.10;;;;;;5051862;28;20218;-68
2022/07/16 00:23:21;;;;;;;2.20;2.00;;;19.20;56.10;;;;;;5068855;28;20886;-70
2022/07/16 00:25:47;;;;;;;2.57;2.30;;;19.30;56.20;;;;;;5051775;28;20768;-70
2022/07/16 00:28:12;;;;;;;2.63;2.43;;;19.30;56.20;;;;;;5051565;28;20222;-69
2022/07/16 00:30:38;;;;;;;2.87;2.43;;;19.30;56.00;;;;;;5030416;28;20747;-69
2022/07/16 00:33:04;;;;;;;5.93;2.97;;;19.30;56.30;;;;;;5051975;28;20219;-69
2022/07/16 00:35:29;;;;;;;3.70;2.53;;;19.20;56.10;;;;;;5055953;28;20224;-70
2022/07/16 00:37:55;;;;;;;2.43;2.23;;;19.20;56.10;;;;;;5055002;28;20239;-70
2022/07/16 00:40:21;;;;;;;2.77;2.57;;;19.20;56.10;;;;;;5038035;28;20559;-69
2022/07/16 00:42:46;;;;;;;3.30;2.67;;;19.20;56.20;;;;;;5055433;28;20630;-70
2022/07/16 00:45:12;;;;;;;3.07;2.87;;;19.10;56.10;;;;;;5042194;28;20219;-68
2022/07/16 00:47:38;;;;;;;2.63;2.40;;;19.10;56.20;;;;;;5056002;28;20223;-69
2022/07/16 00:50:04;;;;;;;3.03;2.63;;;19.10;56.20;;;;;;5031606;28;20239;-69
2022/07/16 00:52:33;;;;;;;2.20;2.00;;;19.10;56.30;;;;;;5035323;28;20220;-69
2022/07/16 00:54:59;;;;;;;2.80;2.60;;;19.00;56.60;;;;;;5054018;28;20501;-70
2022/07/16 00:57:24;;;;;;;3.80;2.90;;;19.00;56.10;;;;;;5054472;28;20970;-70
2022/07/16 00:59:50;;;;;;;2.97;2.77;;;19.00;56.20;;;;;;5046391;28;20691;-70
2022/07/16 01:02:16;;;;;;;3.10;2.40;;;19.00;56.40;;;;;;5052129;28;20223;-70
2022/07/16 01:04:42;;;;;;;2.67;2.47;;;18.90;56.50;;;;;;5054761;28;20226;-70
2022/07/16 01:07:08;;;;;;;3.00;2.70;;;18.90;56.40;;;;;;5079181;28;20242;-70
2022/07/16 01:09:35;;;;;;;2.40;2.20;;;18.90;56.50;;;;;;5067639;28;20218;-70
2022/07/16 01:12:01;;;;;;;3.40;2.50;;;18.90;56.50;;;;;;5060644;28;20441;-69
2022/07/16 01:14:27;;;;;;;3.70;2.80;;;18.80;56.50;;;;;;5054123;28;20473;-69
2022/07/16 01:16:53;;;;;;;2.53;2.40;;;18.70;56.60;;;;;;5087997;28;21000;-70
2022/07/16 01:19:19;;;;;;;2.80;2.60;;;18.70;56.70;;;;;;5038462;28;20524;-69
2022/07/16 01:21:44;;;;;;;3.70;2.73;;;18.70;56.70;;;;;;5050095;28;20250;-70
2022/07/16 01:24:10;;;;;;;3.07;2.80;;;18.60;56.70;;;;;;5053630;28;20594;-70
2022/07/16 01:26:36;;;;;;;3.40;2.53;;;18.60;56.80;;;;;;5019925;28;20638;-69
2022/07/16 01:29:02;;;;;;;4.87;4.57;;;18.60;56.80;;;;;;5046138;28;20216;-69
2022/07/16 01:31:28;;;;;;;2.50;2.30;;;18.50;56.70;;;;;;5053155;28;20450;-69
2022/07/16 01:36:38;;;;;;;3.00;2.70;;;18.50;56.70;;;;;;5049650;28;20226;-69
2022/07/16 01:39:05;;;;;;;2.50;2.37;;;18.50;56.70;;;;;;5058046;28;20457;-69
2022/07/16 01:41:31;;;;;;;3.07;2.80;;;18.50;56.80;;;;;;5054217;28;20281;-69
2022/07/16 01:43:57;;;;;;;8.17;2.77;;;18.40;56.70;;;;;;5071004;28;20465;-69
2022/07/16 01:46:23;;;;;;;6.97;2.93;;;18.40;56.90;;;;;;5052654;28;20225;-69
2022/07/16 01:48:48;;;;;;;3.93;2.80;;;18.40;56.90;;;;;;5054138;28;20234;-69
2022/07/16 01:51:14;;;;;;;4.17;2.33;;;18.40;57.00;;;;;;5052751;28;20214;-69
2022/07/16 01:53:40;;;;;;;2.83;2.63;;;18.40;57.10;;;;;;5069640;28;20714;-69
2022/07/16 01:56:07;;;;;;;2.57;2.37;;;18.30;57.00;;;;;;5060543;28;20219;-69
2022/07/16 01:58:32;;;;;;;4.97;2.27;;;18.20;57.00;;;;;;5053692;28;20457;-69
2022/07/16 02:00:58;;;;;;;2.87;2.57;;;18.20;56.90;;;;;;5037490;28;20449;-68
2022/07/16 02:03:24;;;;;;;4.13;2.80;;;18.20;57.10;;;;;;5052524;28;20243;-69
2022/07/16 02:05:49;;;;;;;2.93;2.73;;;18.20;57.20;;;;;;5053582;28;20219;-69
2022/07/16 02:08:15;;;;;;;2.90;2.47;;;18.10;57.10;;;;;;5041895;28;20218;-69
2022/07/16 02:10:41;;;;;;;7.70;2.47;;;18.10;57.00;;;;;;5065474;28;20228;-68
2022/07/16 02:13:07;;;;;;;3.00;2.80;;;18.10;57.00;;;;;;5057126;28;20226;-68
2022/07/16 02:15:34;;;;;;;3.10;2.90;;;18.10;57.10;;;;;;5053363;28;20211;-67
2022/07/16 02:18:00;;;;;;;2.47;2.33;;;18.10;57.20;;;;;;5050017;28;20453;-68
2022/07/16 02:20:26;;;;;;;3.43;2.23;;;18.10;57.20;;;;;;5062710;28;20457;-68
2022/07/16 02:22:55;;;;;;;4.87;2.77;;;18.00;57.20;;;;;;5060412;28;20712;-68
2022/07/16 02:25:22;;;;;;;2.80;2.60;;;17.90;57.20;;;;;;5052672;28;20219;-70
2022/07/16 02:30:33;;;;;;;2.43;2.23;;;17.90;57.30;;;;;;5070669;28;20449;-68
2022/07/16 02:32:59;;;;;;;7.07;2.70;;;17.90;57.50;;;;;;5053381;28;20533;-69
2022/07/16 02:35:25;;;;;;;2.70;2.50;;;17.80;57.40;;;;;;5052469;28;20528;-69
2022/07/16 02:37:51;;;;;;;2.80;2.60;;;17.70;57.50;;;;;;5041618;28;20251;-69
2022/07/16 02:40:17;;;;;;;2.37;2.17;;;17.70;57.60;;;;;;5051854;28;20215;-69
2022/07/16 02:42:43;;;;;;;2.40;2.20;;;17.60;57.70;;;;;;5052980;28;20511;-68
2022/07/16 02:45:10;;;;;;;4.60;2.33;;;17.60;57.60;;;;;;5032488;28;20877;-69
2022/07/16 02:47:36;;;;;;;4.87;2.20;;;17.60;57.70;;;;;;5052540;28;20725;-67
2022/07/16 02:50:03;;;;;;;3.30;3.10;;;17.60;57.70;;;;;;5052873;28;20481;-67
2022/07/16 02:52:28;;;;;;;2.53;2.33;;;17.60;57.70;;;;;;5042808;28;20491;-68
2022/07/16 02:54:54;;;;;;;3.90;2.60;;;17.60;57.70;;;;;;5064869;28;20946;-69
2022/07/16 02:57:20;;;;;;;2.40;2.20;;;17.60;57.70;;;;;;5053844;28;20244;-69
2022/07/16 02:59:45;;;;;;;2.40;2.20;;;17.60;57.70;;;;;;5070812;28;20227;-68
2022/07/16 03:02:11;;;;;;;2.67;2.47;;;17.50;57.70;;;;;;5051019;28;20227;-68
2022/07/16 03:04:37;;;;;;;2.53;2.33;;;17.40;58.20;;;;;;5070307;28;20235;-69
2022/07/16 03:07:03;;;;;;;2.10;1.90;;;17.40;58.00;;;;;;5052576;28;20227;-68
2022/07/16 03:09:28;;;;;;;2.53;2.33;;;17.40;57.90;;;;;;5053104;28;20302;-67
2022/07/16 03:11:54;;;;;;;2.17;2.07;;;17.30;58.10;;;;;;5052447;28;20548;-69
2022/07/16 03:14:20;;;;;;;2.50;2.30;;;17.20;58.30;;;;;;5050300;28;20224;-68
2022/07/16 03:16:46;;;;;;;2.17;1.97;;;17.20;58.20;;;;;;5070423;28;20226;-69
2022/07/16 03:19:12;;;;;;;2.50;2.30;;;17.10;58.20;;;;;;5072684;28;20803;-68
2022/07/16 03:21:38;;;;;;;4.40;2.73;;;17.10;58.60;;;;;;5032447;28;20286;-69
2022/07/16 03:24:04;;;;;;;3.10;2.70;;;16.90;58.60;;;;;;5032358;28;20230;-69
2022/07/16 03:26:31;;;;;;;2.33;2.13;;;16.90;58.70;;;;;;5067141;28;20259;-69
2022/07/16 03:28:56;;;;;;;3.00;2.03;;;16.90;58.70;;;;;;5054508;28;20873;-69
2022/07/16 03:31:22;;;;;;;2.50;2.30;;;16.90;58.80;;;;;;5043147;28;20216;-68
2022/07/16 03:33:48;;;;;;;2.90;2.30;;;16.90;58.80;;;;;;5045154;28;20310;-67
2022/07/16 03:36:13;;;;;;;2.83;2.30;;;16.90;58.60;;;;;;5069063;28;20254;-69
2022/07/16 03:41:23;;;;;;;2.70;1.93;;;16.90;58.50;;;;;;5088162;28;20218;-70
2022/07/16 03:43:49;;;;;;;3.00;2.10;;;16.90;58.60;;;;;;5031246;28;20465;-69
2022/07/16 03:46:15;;;;;;;2.30;2.10;;;16.90;58.90;;;;;;5051265;28;20218;-69
2022/07/16 03:48:41;;;;;;;2.83;2.23;;;16.90;58.80;;;;;;5035485;28;20222;-68
2022/07/16 03:51:07;;;;;;;1.90;1.80;;;16.90;58.70;;;;;;5029101;28;20224;-69
2022/07/16 03:53:34;;;;;;;2.30;2.20;;;16.90;58.60;;;;;;5029183;28;20460;-68
2022/07/16 03:55:59;;;;;;;3.13;2.83;;;16.90;58.50;;;;;;5081000;28;20459;-69
2022/07/16 03:58:28;;;;;;;2.97;2.67;;;16.90;58.80;;;;;;5031234;28;20469;-69
2022/07/16 04:00:54;;;;;;;2.17;2.07;;;16.90;58.70;;;;;;5044549;28;20237;-70
2022/07/16 04:03:20;;;;;;;3.33;2.50;;;16.90;58.60;;;;;;5056801;28;20468;-69
2022/07/16 04:05:46;;;;;;;2.20;2.10;;;16.90;58.60;;;;;;5034927;28;20457;-69
2022/07/16 04:08:12;;;;;;;3.90;2.53;;;16.90;58.50;;;;;;5042349;28;20453;-69
2022/07/16 04:10:37;;;;;;;2.70;2.50;;;16.90;58.60;;;;;;5059954;28;20315;-69
2022/07/16 04:13:03;;;;;;;4.10;1.90;;;16.90;58.60;;;;;;5056728;28;20229;-69
2022/07/16 04:15:29;;;;;;;5.73;2.70;;;16.90;58.60;;;;;;5071398;28;20223;-68
2022/07/16 04:17:55;;;;;;;2.43;2.23;;;16.90;58.40;;;;;;5037048;28;20242;-68
2022/07/16 04:20:21;;;;;;;2.80;2.50;;;16.90;58.70;;;;;;5050012;28;20981;-68
2022/07/16 04:22:47;;;;;;;2.50;2.30;;;16.90;58.70;;;;;;5036810;28;20226;-68
2022/07/16 04:25:13;;;;;;;2.20;2.10;;;16.90;58.70;;;;;;5070278;28;20922;-68
2022/07/16 04:27:39;;;;;;;2.40;2.23;;;16.90;58.60;;;;;;5080265;28;20223;-68
2022/07/16 04:30:07;;;;;;;2.73;2.30;;;16.90;58.80;;;;;;5054314;28;20220;-69
2022/07/16 04:32:37;;;;;;;6.00;2.53;;;16.90;58.80;;;;;;5028772;28;20529;-69
2022/07/16 04:35:04;;;;;;;3.57;2.23;;;16.90;58.90;;;;;;5063663;28;20897;-70
2022/07/16 04:37:30;;;;;;;3.80;2.17;;;16.90;59.30;;;;;;5071533;28;20445;-69
2022/07/16 04:39:55;;;;;;;2.57;2.00;;;16.90;59.10;;;;;;5053818;28;20510;-68
2022/07/16 04:42:21;;;;;;;2.47;2.03;;;16.90;59.20;;;;;;5052700;28;20219;-69
2022/07/16 04:44:47;;;;;;;2.57;2.17;;;16.90;59.40;;;;;;5052586;28;20291;-68
2022/07/16 04:47:12;;;;;;;3.83;2.23;;;16.80;59.40;;;;;;5056647;28;20722;-69
2022/07/16 04:49:38;;;;;;;3.23;1.70;;;16.80;59.20;;;;;;5039552;28;20730;-69
2022/07/16 04:52:04;;;;;;;3.07;2.20;;;16.80;59.40;;;;;;5044567;28;20223;-70
2022/07/16 04:54:30;;;;;;;2.30;2.10;;;16.80;59.60;;;;;;5070857;28;20219;-69
2022/07/16 04:56:56;;;;;;;2.10;2.00;;;16.80;59.80;;;;;;5036229;28;20475;-69
2022/07/16 04:59:22;;;;;;;2.40;2.20;;;16.70;60.20;;;;;;5036146;28;20234;-68
2022/07/16 05:01:47;;;;;;;2.10;1.90;;;16.70;59.80;;;;;;5035482;28;20225;-69
2022/07/16 05:04:13;;;;;;;8.40;2.40;;;16.80;59.80;;;;;;5052287;28;20225;-69
2022/07/16 05:06:39;;;;;;;2.10;2.00;;;16.80;59.90;;;;;;5053372;28;20641;-72
2022/07/16 05:09:05;;;;;;;3.10;2.80;;;16.90;59.80;;;;;;5065948;28;20309;-69
2022/07/16 05:11:30;;;;;;;3.03;2.63;;;16.90;59.90;;;;;;5044260;28;20227;-69
2022/07/16 05:13:56;;;;;;;3.63;2.70;;;17.00;60.30;;;;;;5052605;28;20211;-68
2022/07/16 05:16:23;;;;;;;2.50;2.30;;;17.00;60.80;;;;;;5069929;28;20724;-68
2022/07/16 05:18:49;;;;;;;4.80;2.10;;;17.10;60.30;;;;;;5048045;28;20480;-70
2022/07/16 05:21:15;;;;;;;2.60;2.40;;;17.20;60.50;;;;;;5054394;28;20461;-68
2022/07/16 05:23:41;;;;;;;3.10;1.90;;;17.20;61.10;;;;;;5049189;28;20806;-68
2022/07/16 05:26:07;;;;;;;2.70;2.50;;;17.20;60.70;;;;;;5036366;28;20289;-68
2022/07/16 05:28:33;;;;;;;2.10;2.00;;;17.30;60.50;;;;;;5045049;28;20969;-69
2022/07/16 05:30:58;;;;;;;2.40;2.20;;;17.30;60.70;;;;;;5038627;28;20718;-69
2022/07/16 05:33:24;;;;;;;2.17;2.00;;;17.30;61.10;;;;;;5052322;28;20230;-70
2022/07/16 05:35:50;;;;;;;2.50;2.00;;;17.30;60.90;;;;;;5051099;28;20230;-69
2022/07/16 05:38:16;;;;;;;2.37;1.90;;;17.40;61.30;;;;;;5084634;28;20254;-70
2022/07/16 05:40:42;;;;;;;2.73;1.63;;;17.40;61.10;;;;;;5077908;28;20533;-67
2022/07/16 05:43:08;;;;;;;2.40;2.00;;;17.40;61.30;;;;;;5076562;28;20469;-70
2022/07/16 05:45:34;;;;;;;1.70;1.60;;;17.40;61.30;;;;;;5070601;28;20448;-69
2022/07/16 05:48:00;;;;;;;1.90;1.80;;;17.50;61.40;;;;;;5035777;28;20223;-69
2022/07/16 05:50:25;;;;;;;2.70;1.40;;;17.50;61.20;;;;;;5051438;28;20215;-68
2022/07/16 05:52:51;;;;;;;5.00;2.30;;;17.50;61.30;;;;;;5051765;28;20223;-69
2022/07/16 05:55:17;;;;;;;1.90;1.80;;;17.50;61.40;;;;;;5051939;28;20223;-68
2022/07/16 05:57:42;;;;;;;2.53;1.73;;;17.50;61.40;;;;;;5052129;28;20223;-68
2022/07/16 06:00:12;;;;;;;1.27;1.27;;;17.50;61.50;;;;;;5065947;28;20630;-69
2022/07/16 06:02:40;;;;;;;1.67;1.57;;;17.50;61.80;;;;;;5069563;28;20243;-69
2022/07/16 06:05:06;;;;;;;1.50;1.40;;;17.50;62.30;;;;;;5051789;28;20536;-69
2022/07/16 06:07:32;;;;;;;3.37;1.53;;;17.50;62.10;;;;;;5035727;28;20445;-69
2022/07/16 06:09:58;;;;;;;5.30;2.37;;;17.60;62.40;;;;;;5051457;28;20984;-69
2022/07/16 06:12:24;;;;;;;2.60;1.60;;;17.60;62.50;;;;;;5051415;28;20223;-70
2022/07/16 06:14:49;;;;;;;2.13;1.67;;;17.60;63.30;;;;;;5051458;28;20208;-69
2022/07/16 06:17:15;;;;;;;1.50;1.40;;;17.70;64.10;;;;;;5050095;28;20690;-69
2022/07/16 06:19:43;;;;;;;1.80;1.70;;;17.70;64.00;;;;;;5069388;28;20230;-67
2022/07/16 06:22:10;;;;;;;3.33;1.67;;;17.70;64.10;;;;;;5069152;28;20536;-69
2022/07/16 06:24:36;;;;;;;3.13;1.70;;;17.80;64.40;;;;;;5030130;28;20469;-70
2022/07/16 06:27:02;;;;;;;2.60;1.50;;;17.90;64.10;;;;;;5051452;28;20453;-69
2022/07/16 06:29:29;;;;;;;2.70;1.40;;;18.00;64.10;;;;;;5051309;28;20454;-69
2022/07/16 06:31:54;;;;;;;1.63;1.53;;;18.10;64.10;;;;;;5045316;28;20438;-69
2022/07/16 06:34:20;;;;;;;2.60;1.63;;;18.10;64.30;;;;;;5042288;28;20453;-69
2022/07/16 06:36:46;;;;;;;1.90;1.80;;;18.30;64.60;;;;;;5069074;28;20215;-69
2022/07/16 06:39:12;;;;;;;2.27;1.90;;;18.40;64.60;;;;;;5055587;28;20219;-69
2022/07/16 06:41:39;;;;;;;1.20;1.20;;;18.50;63.90;;;;;;5047405;28;20247;-69
2022/07/16 06:44:09;;;;;;;2.13;1.77;;;18.50;64.80;;;;;;5045623;28;20988;-69
2022/07/16 06:46:36;;;;;;;3.00;1.57;;;18.50;64.70;;;;;;5049834;28;20498;-69
2022/07/16 06:49:02;;;;;;;5.33;2.10;;;18.60;64.60;;;;;;5057949;28;20920;-68
2022/07/16 06:51:27;;;;;;;2.10;1.87;;;18.60;65.00;;;;;;5065231;28;20498;-69
2022/07/16 06:53:53;;;;;;;2.47;1.80;;;18.80;65.10;;;;;;5068552;28;20465;-70
2022/07/16 06:56:19;;;;;;;1.73;1.63;;;18.90;65.00;;;;;;5050693;28;20223;-69
2022/07/16 06:58:45;;;;;;;2.20;1.87;;;19.00;65.20;;;;;;5069497;28;20225;-69
2022/07/16 07:01:11;;;;;;;2.30;1.90;;;19.00;64.90;;;;;;5052647;28;20219;-68
2022/07/16 07:03:40;;;;;;;1.63;1.53;;;19.10;65.10;;;;;;5048646;28;20255;-68
2022/07/16 07:06:07;;;;;;;1.80;1.70;;;19.10;65.10;;;;;;5050003;28;20457;-69
2022/07/16 07:08:33;;;;;;;2.27;2.07;;;19.20;65.30;;;;;;5048685;28;20442;-68
2022/07/16 07:10:59;;;;;;;4.23;2.47;;;19.20;65.10;;;;;;5048206;28;20909;-69
2022/07/16 07:13:30;;;;;;;1.80;1.70;;;19.30;65.40;;;;;;5034398;28;20461;-69
2022/07/16 07:15:57;;;;;;;2.40;1.70;;;19.40;65.60;;;;;;5059132;28;20467;-69
2022/07/16 07:18:24;;;;;;;2.40;1.73;;;19.40;65.80;;;;;;5040429;28;20894;-69
2022/07/16 07:20:50;;;;;;;1.63;1.30;;;19.50;65.00;;;;;;5049547;28;20551;-69
2022/07/16 07:23:15;;;;;;;5.53;1.57;;;19.60;64.70;;;;;;5047080;28;20500;-69
2022/07/16 07:25:41;;;;;;;3.83;2.10;;;19.70;65.10;;;;;;5054600;28;20229;-69
2022/07/16 07:28:07;;;;;;;4.83;2.00;;;19.80;65.20;;;;;;5033516;28;20207;-69
2022/07/16 07:30:32;;;;;;;3.03;1.87;;;19.80;64.80;;;;;;5049177;28;20266;-69
2022/07/16 07:33:00;;;;;;;2.13;1.90;;;19.90;64.90;;;;;;5028427;28;20215;-69
2022/07/16 07:35:26;;;;;;;2.43;1.90;;;20.00;64.60;;;;;;5055711;28;20299;-69
2022/07/16 07:37:52;;;;;;;2.17;1.97;;;20.10;64.80;;;;;;5046279;28;20466;-69
2022/07/16 07:40:18;;;;;;;2.67;1.80;;;20.20;65.30;;;;;;5013693;28;20458;-68
2022/07/16 07:42:44;;;;;;;4.53;2.20;;;20.30;65.30;;;;;;5028862;28;20232;-69
2022/07/16 07:45:10;;;;;;;3.07;2.07;;;20.30;64.80;;;;;;5044617;28;20995;-68
2022/07/16 07:47:37;;;;;;;1.80;1.67;;;20.40;64.60;;;;;;5028240;28;20227;-69
2022/07/16 07:50:09;;;;;;;4.00;2.00;;;20.50;64.50;;;;;;5049553;28;20518;-69
2022/07/16 07:52:35;;;;;;;2.23;2.03;;;20.60;64.50;;;;;;5066992;28;20881;-70
2022/07/16 07:55:01;;;;;;;1.53;1.30;;;20.70;63.80;;;;;;5048264;28;20858;-69
2022/07/16 07:57:26;;;;;;;1.93;1.70;;;20.80;63.30;;;;;;5056733;28;20481;-70
2022/07/16 07:59:52;;;;;;;1.70;1.60;;;20.80;62.20;;;;;;5046870;28;20249;-69
2022/07/16 08:02:18;;;;;;;1.50;1.40;;;20.90;62.20;;;;;;5056113;28;20211;-70
2022/07/16 08:04:44;;;;;;;2.00;1.90;;;20.90;61.10;;;;;;5049258;28;20230;-68
2022/07/16 08:07:09;;;;;;;1.70;1.53;;;21.00;61.90;;;;;;5049377;28;20385;-68
2022/07/16 08:09:36;;;;;;;3.60;2.10;;;21.10;61.20;;;;;;5036509;28;20219;-68
2022/07/16 08:12:02;;;;;;;1.87;1.40;;;21.10;60.90;;;;;;5050084;28;20576;-69
2022/07/16 08:14:28;;;;;;;1.73;1.63;;;21.10;61.20;;;;;;5033998;28;20777;-68
2022/07/16 08:16:55;;;;;;;4.07;1.67;;;21.20;61.50;;;;;;5034199;28;20458;-68
2022/07/16 08:19:21;;;;;;;1.87;1.70;;;21.30;60.90;;;;;;5048058;28;20223;-69
2022/07/16 08:21:47;;;;;;;1.77;1.67;;;21.40;60.70;;;;;;5067553;28;20469;-68
2022/07/16 08:26:58;;;;;;;3.03;2.00;;;21.60;61.00;;;;;;5050558;28;20460;-69
2022/07/16 08:29:24;;;;;;;3.73;2.40;;;21.70;61.20;;;;;;5049211;28;20449;-69
2022/07/16 08:31:50;;;;;;;2.53;1.90;;;21.80;61.40;;;;;;5049279;28;20225;-69
2022/07/16 08:34:16;;;;;;;2.00;1.63;;;21.90;60.30;;;;;;5050904;28;20211;-69
2022/07/16 08:36:42;;;;;;;1.70;1.57;;;22.00;60.60;;;;;;5068134;28;20458;-69
2022/07/16 08:39:07;;;;;;;2.00;1.80;;;22.10;61.30;;;;;;5075341;28;20234;-69
2022/07/16 08:41:34;;;;;;;1.73;1.63;;;22.20;60.40;;;;;;5058787;28;20296;-69
2022/07/16 08:44:00;;;;;;;2.63;1.87;;;22.30;60.90;;;;;;5049841;28;20233;-69
2022/07/16 08:46:28;;;;;;;4.00;2.27;;;22.20;60.10;;;;;;5050498;28;20518;-69
2022/07/16 08:48:53;;;;;;;1.80;1.70;;;22.30;60.30;;;;;;5069281;28;20473;-69
2022/07/16 08:51:30;;;;;;;1.90;1.70;;;22.50;60.60;;;;;;5032005;28;20481;-70
2022/07/16 08:54:00;;;;;;;2.10;1.73;;;22.60;59.90;;;;;;5021303;28;20301;-69
2022/07/16 08:56:28;;;;;;;6.10;2.50;;;22.50;59.20;;;;;;5068502;28;20540;-69
2022/07/16 08:58:53;;;;;;;2.23;1.93;;;22.60;59.70;;;;;;5054352;28;20453;-71
2022/07/16 09:01:19;;;;;;;2.50;2.30;;;22.70;59.80;;;;;;5053671;28;20445;-69
2022/07/16 09:03:45;;;;;;;2.13;1.90;;;22.80;59.80;;;;;;5053675;28;20776;-69
2022/07/16 09:06:11;;;;;;;1.83;1.73;;;22.90;59.40;;;;;;5069166;28;20765;-70
2022/07/16 09:08:37;;;;;;;2.37;1.83;;;23.00;59.60;;;;;;5042061;28;20221;-69
2022/07/16 09:11:23;;;;;;;2.03;1.93;;;23.10;59.40;;;;;;5048268;28;20469;-70
2022/07/16 09:14:05;;;;;;;1.87;1.77;;;23.20;59.40;;;;;;5026881;28;20273;-68
2022/07/16 09:16:40;;;;;;;2.87;2.20;;;23.20;58.80;;;;;;5037628;28;20510;-69
2022/07/16 09:19:10;;;;;;;3.40;2.27;;;23.30;59.30;;;;;;5026042;28;20466;-69
2022/07/16 09:21:56;;;;;;;2.40;1.77;;;23.50;59.40;;;;;;5041574;28;20465;-69
2022/07/16 09:24:38;;;;;;;3.73;2.10;;;23.60;59.00;;;;;;5041110;28;20479;-69
2022/07/16 09:27:14;;;;;;;1.90;1.80;;;23.50;58.70;;;;;;5046608;28;20450;-69
2022/07/16 09:29:50;;;;;;;2.40;2.20;;;23.70;58.90;;;;;;5030598;28;20461;-69
2022/07/16 09:32:29;;;;;;;7.57;2.50;;;23.70;58.10;;;;;;5048647;28;20453;-70
2022/07/16 09:35:02;;;;;;;3.10;2.10;;;23.60;58.30;;;;;;5031046;28;20460;-69
2022/07/16 09:37:56;;;;;;;3.00;2.07;;;23.60;58.30;;;;;;5049317;28;20453;-69
2022/07/16 09:40:31;;;;;;;2.67;2.47;;;23.70;58.40;;;;;;5065749;28;20468;-69
2022/07/16 09:42:57;;;;;;;2.60;2.00;;;23.90;58.40;;;;;;5071047;28;20469;-69
2022/07/16 09:45:23;;;;;;;3.03;2.40;;;23.70;58.20;;;;;;5052335;28;20800;-68
2022/07/16 09:47:49;;;;;;;3.60;2.27;;;23.90;58.70;;;;;;5058493;28;20300;-69
2022/07/16 09:50:15;;;;;;;2.30;1.80;;;24.00;58.00;;;;;;5075212;28;20246;-69
2022/07/16 09:52:40;;;;;;;3.73;2.30;;;24.00;57.80;;;;;;5052098;28;20503;-69
2022/07/16 09:55:07;;;;;;;2.47;2.27;;;24.20;58.10;;;;;;5037639;28;20480;-69
2022/07/16 09:57:34;;;;;;;2.10;1.87;;;24.30;58.30;;;;;;5052163;28;20206;-70
2022/07/16 10:00:00;;;;;;;2.50;2.30;;;24.50;58.00;;;;;;5053689;28;20477;-68
2022/07/16 10:02:27;;;;;;;2.43;2.17;;;24.60;58.10;;;;;;5059830;28;20822;-69
2022/07/16 10:04:53;;;;;;;2.50;2.30;;;24.80;58.20;;;;;;5049613;28;20577;-69
2022/07/16 10:07:19;;;;;;;3.57;2.53;;;24.90;58.00;;;;;;5032404;28;20474;-69
2022/07/16 10:09:46;;;;;;;2.87;2.67;;;24.90;57.50;;;;;;5048893;28;21020;-69
2022/07/16 10:12:14;;;;;;;2.60;2.40;;;24.90;57.80;;;;;;5033828;28;20210;-68
2022/07/16 10:14:45;;;;;;;2.23;2.13;;;25.00;57.70;;;;;;5033588;28;20487;-69
2022/07/16 10:17:18;;;;;;;2.33;2.23;;;24.90;57.40;;;;;;5038789;28;20515;-68
2022/07/16 10:19:44;;;;;;;2.33;1.93;;;24.90;57.50;;;;;;5066285;28;20453;-68
2022/07/16 10:22:26;;;;;;;4.40;2.33;;;25.10;57.70;;;;;;5030799;28;20461;-69
2022/07/16 10:24:54;;;;;;;2.47;2.27;;;25.10;57.00;;;;;;5047239;28;20461;-68
2022/07/16 10:27:30;;;;;;;2.80;2.30;;;25.10;57.40;;;;;;5033957;28;20468;-69
2022/07/16 10:30:16;;;;;;;3.93;2.87;;;25.30;57.40;;;;;;5032410;28;20522;-69
2022/07/16 10:33:00;;;;;;;1.97;1.87;;;25.30;56.60;;;;;;5066284;28;20464;-69
2022/07/16 10:35:38;;;;;;;2.20;2.10;;;25.10;56.60;;;;;;5058160;28;20524;-69
2022/07/16 10:38:11;;;;;;;3.03;2.73;;;25.00;56.60;;;;;;5053559;28;20465;-69
2022/07/16 10:40:38;;;;;;;2.50;2.30;;;25.20;56.80;;;;;;5027787;28;20554;-69
2022/07/16 10:43:21;;;;;;;3.50;2.07;;;25.40;56.90;;;;;;5031828;28;20466;-69
2022/07/16 10:45:59;;;;;;;2.67;2.43;;;25.40;56.70;;;;;;5052405;28;20456;-69
2022/07/16 10:48:28;;;;;;;2.97;2.33;;;25.50;56.40;;;;;;5052185;28;20454;-69
2022/07/16 10:51:22;;;;;;;1.90;1.80;;;25.30;56.40;;;;;;5058493;28;20598;-69
2022/07/16 10:53:57;;;;;;;3.00;2.80;;;25.20;56.40;;;;;;5029762;28;20438;-69
2022/07/16 10:56:43;;;;;;;2.27;1.90;;;25.40;56.70;;;;;;5046833;28;20452;-69
2022/07/16 10:59:14;;;;;;;1.80;1.70;;;25.60;56.50;;;;;;5034188;28;20453;-69
2022/07/16 11:01:43;;;;;;;2.30;2.10;;;25.60;56.00;;;;;;5070065;28;21094;-69
2022/07/16 11:04:10;;;;;;;3.13;2.90;;;25.60;56.40;;;;;;5051264;28;20549;-69
2022/07/16 11:06:37;;;;;;;4.23;2.40;;;25.80;56.70;;;;;;5031337;28;20472;-69
2022/07/16 11:09:05;;;;;;;2.50;2.30;;;25.90;56.10;;;;;;5069428;28;20461;-69
2022/07/16 11:11:34;;;;;;;3.43;2.27;;;26.00;55.80;;;;;;5034676;28;20453;-68
2022/07/16 11:14:02;;;;;;;2.00;1.90;;;25.70;55.80;;;;;;5064215;28;20469;-69
2022/07/16 11:16:28;;;;;;;3.13;2.00;;;25.70;55.60;;;;;;5050761;28;20442;-69
2022/07/16 11:18:54;;;;;;;3.00;2.20;;;25.90;56.10;;;;;;5043347;28;20493;-68
2022/07/16 11:21:20;;;;;;;2.63;2.17;;;26.00;55.70;;;;;;5041631;28;20459;-68
2022/07/16 11:23:48;;;;;;;2.93;2.73;;;26.20;56.10;;;;;;5040069;28;20470;-68
2022/07/16 11:26:14;;;;;;;2.40;2.20;;;26.40;55.90;;;;;;5048976;28;20298;-68
2022/07/16 11:28:54;;;;;;;2.60;2.40;;;26.50;55.90;;;;;;5031476;28;20542;-69
2022/07/16 11:31:25;;;;;;;2.77;2.30;;;26.70;55.20;;;;;;5064514;28;20225;-67
2022/07/16 11:33:58;;;;;;;2.40;2.20;;;26.60;55.00;;;;;;5064556;28;20451;-68
2022/07/16 11:36:32;;;;;;;2.87;2.13;;;26.60;54.90;;;;;;5052710;28;20474;-68
2022/07/16 11:39:03;;;;;;;2.60;2.33;;;26.40;54.80;;;;;;5039230;28;20944;-69
2022/07/16 11:41:32;;;;;;;2.27;2.17;;;26.50;55.00;;;;;;5053230;28;20458;-69
2022/07/16 11:43:58;;;;;;;2.30;2.10;;;26.60;55.10;;;;;;5047777;28;20842;-70
2022/07/16 11:46:28;;;;;;;2.40;2.03;;;26.80;55.30;;;;;;5050393;28;20458;-70
2022/07/16 11:48:55;;;;;;;4.33;2.43;;;26.80;55.00;;;;;;5050709;28;20251;-70
2022/07/16 11:51:21;;;;;;;2.57;2.30;;;26.90;55.10;;;;;;5081586;28;20451;-69
2022/07/16 11:53:56;;;;;;;2.67;2.47;;;26.80;54.80;;;;;;5057926;28;20661;-69
2022/07/16 11:56:38;;;;;;;2.40;2.20;;;26.80;55.00;;;;;;5049704;28;20215;-69
2022/07/16 11:59:28;;;;;;;2.87;2.13;;;27.00;54.80;;;;;;5064706;28;21006;-70
2022/07/16 12:02:04;;;;;;;2.40;2.20;;;27.00;54.90;;;;;;5063446;28;20477;-69
2022/07/16 12:04:40;;;;;;;2.70;2.50;;;26.70;55.10;;;;;;5049795;28;20467;-69
2022/07/16 12:07:09;;;;;;;2.67;2.47;;;26.70;54.50;;;;;;5048687;28;20869;-70
2022/07/16 12:09:37;;;;;;;3.00;2.30;;;26.70;54.80;;;;;;5044544;28;20482;-70
2022/07/16 12:12:05;;;;;;;2.50;2.30;;;26.70;54.60;;;;;;5071039;28;20811;-69
2022/07/16 12:15:02;;;;;;;2.13;2.03;;;26.80;54.60;;;;;;5061418;28;21002;-69
2022/07/16 12:17:39;;;;;;;2.30;2.20;;;27.00;54.70;;;;;;5032468;28;20229;-70
2022/07/16 12:20:08;;;;;;;2.23;2.10;;;27.10;54.50;;;;;;5050018;28;20700;-69
2022/07/16 12:22:42;;;;;;;3.43;2.20;;;27.30;54.20;;;;;;5068495;28;20283;-69
2022/07/16 12:25:20;;;;;;;2.23;2.03;;;27.30;54.40;;;;;;5040161;28;20222;-69
2022/07/16 12:27:54;;;;;;;2.50;2.30;;;27.30;54.10;;;;;;5046462;28;20269;-69
2022/07/16 12:30:39;;;;;;;3.13;2.40;;;27.20;53.90;;;;;;5047486;28;20514;-69
2022/07/16 12:33:24;;;;;;;2.80;2.30;;;27.00;54.10;;;;;;5031735;28;20485;-70
2022/07/16 12:35:55;;;;;;;2.40;2.20;;;26.90;53.80;;;;;;5037783;28;20485;-69
2022/07/16 12:38:39;;;;;;;2.40;2.30;;;26.90;53.80;;;;;;5063482;28;20844;-69
2022/07/16 12:41:08;;;;;;;1.83;1.73;;;26.90;54.20;;;;;;5049118;28;20952;-69
2022/07/16 12:43:34;;;;;;;2.00;1.90;;;26.70;54.10;;;;;;5052081;28;20494;-68
2022/07/16 12:46:00;;;;;;;3.40;2.47;;;26.90;54.30;;;;;;5054617;28;20486;-69
2022/07/16 12:48:28;;;;;;;2.67;2.17;;;27.00;54.00;;;;;;5071667;28;20218;-69
2022/07/16 12:50:54;;;;;;;4.13;2.50;;;27.00;53.80;;;;;;5037838;28;20454;-70
2022/07/16 12:53:20;;;;;;;3.30;2.90;;;27.10;54.00;;;;;;5051397;28;20223;-69
2022/07/16 12:58:49;;;;;;;2.67;2.47;;;26.90;54.60;;;;;;5070658;28;20221;-70
2022/07/16 13:01:17;;;;;;;2.87;2.37;;;26.80;55.30;;;;;;5037025;28;20515;-69
2022/07/16 13:03:43;;;;;;;2.60;2.40;;;26.90;55.30;;;;;;5062671;28;20592;-70
2022/07/16 13:06:09;;;;;;;2.80;2.57;;;26.80;55.30;;;;;;5041290;28;20455;-69
2022/07/16 13:08:36;;;;;;;2.63;2.43;;;27.00;55.30;;;;;;5039525;28;20214;-69
2022/07/16 13:11:03;;;;;;;3.10;2.80;;;27.00;55.20;;;;;;5052868;28;20489;-69